Time;durP1;ratioP1;P1;durP2;ratioP2;P2;SDS_P1;SDS_P2;PMS_P1;PMS_P2;Temp;Humidity;BMP_temperature;BMP_pressure;BME280_temperature;BME280_humidity;BME280_pressure;Samples;Min_cycle;Max_cycle;Signal;HPM_P1;HPM_P2
2023/09/29 00:00:35;;;;;;;;;;;;;;;;;;5060098;28;20570;-62
2023/09/29 00:03:02;;;;;;;;;;;;;;;;;;5059994;28;19928;-62
2023/09/29 00:05:28;;;;;;;;;;;;;;;;;;5057146;28;19924;-62
2023/09/29 00:07:54;;;;;;;;;;;;;;;;;;5060594;28;19924;-62
2023/09/29 00:10:21;;;;;;;;;;;;;;;;;;5060183;28;20058;-61
2023/09/29 00:12:48;;;;;;;;;;;;;;;;;;5060096;28;19987;-62
2023/09/29 00:15:15;;;;;;;;;;;;;;;;;;5061537;28;20019;-62
2023/09/29 00:17:41;;;;;;;;;;;;;;;;;;5060709;28;19969;-62
2023/09/29 00:20:23;;;;;;;;;;;;;;;;;;5060668;28;20401;-62
2023/09/29 00:22:49;;;;;;;;;;;;;;;;;;5060957;28;20010;-62
2023/09/29 00:25:15;;;;;;;;;;;;;;;;;;5060684;28;20020;-62
2023/09/29 00:27:41;;;;;;;;;;;;;;;;;;5060078;28;20816;-62
2023/09/29 00:30:07;;;;;;;;;;;;;;;;;;5060768;28;20249;-62
2023/09/29 00:32:33;;;;;;;;;;;;;;;;;;5060190;28;19924;-62
2023/09/29 00:34:59;;;;;;;;;;;;;;;;;;5061345;28;19958;-62
2023/09/29 00:37:25;;;;;;;;;;;;;;;;;;5061636;28;19928;-62
2023/09/29 00:39:52;;;;;;;;;;;;;;;;;;5061003;28;20394;-62
2023/09/29 00:42:18;;;;;;;;;;;;;;;;;;5061361;28;19989;-62
2023/09/29 00:44:45;;;;;;;;;;;;;;;;;;5061254;28;19924;-62
2023/09/29 00:47:11;;;;;;;;;;;;;;;;;;5061914;28;19931;-62
2023/09/29 00:49:37;;;;;;;;;;;;;;;;;;5060387;28;20000;-62
2023/09/29 00:52:03;;;;;;;;;;;;;;;;;;5059277;28;19924;-62
2023/09/29 00:54:29;;;;;;;;;;;;;;;;;;5059364;28;20449;-61
2023/09/29 00:56:55;;;;;;;;;;;;;;;;;;5059645;28;19960;-61
2023/09/29 00:59:21;;;;;;;;;;;;;;;;;;5059182;28;20020;-62
2023/09/29 01:01:47;;;;;;;;;;;;;;;;;;5061668;28;19993;-61
2023/09/29 01:04:15;;;;;;;;;;;;;;;;;;5060676;28;20883;-61
2023/09/29 01:06:41;;;;;;;;;;;;;;;;;;5042173;28;19960;-61
2023/09/29 01:09:07;;;;;;;;;;;;;;;;;;5060359;28;19920;-61
2023/09/29 01:11:33;;;;;;;;;;;;;;;;;;5061619;28;19924;-62
2023/09/29 01:13:59;;;;;;;;;;;;;;;;;;5058494;28;20418;-62
2023/09/29 01:16:25;;;;;;;;;;;;;;;;;;5061406;28;20067;-62
2023/09/29 01:18:52;;;;;;;;;;;;;;;;;;5058618;28;20300;-62
2023/09/29 01:21:19;;;;;;;;;;;;;;;;;;5059412;28;19928;-61
2023/09/29 01:23:45;;;;;;;;;;;;;;;;;;5060620;28;19977;-62
2023/09/29 01:26:11;;;;;;;;;;;;;;;;;;5061871;28;19923;-62
2023/09/29 01:28:37;;;;;;;;;;;;;;;;;;5060699;28;19996;-62
2023/09/29 01:31:06;;;;;;;;;;;;;;;;;;5059652;28;20408;-61
2023/09/29 01:33:32;;;;;;;;;;;;;;;;;;5060502;28;19924;-62
2023/09/29 01:35:58;;;;;;;;;;;;;;;;;;5060830;28;19924;-62
2023/09/29 01:38:25;;;;;;;;;;;;;;;;;;5061766;28;20349;-62
2023/09/29 01:40:51;;;;;;;;;;;;;;;;;;5060535;28;20027;-62
2023/09/29 01:43:22;;;;;;;;;;;;;;;;;;5059317;28;19955;-62
2023/09/29 01:45:48;;;;;;;;;;;;;;;;;;5061543;28;19932;-62
2023/09/29 01:48:15;;;;;;;;;;;;;;;;;;5060566;28;19977;-62
2023/09/29 01:50:42;;;;;;;;;;;;;;;;;;5060290;28;19924;-63
2023/09/29 01:53:12;;;;;;;;;;;;;;;;;;5061423;28;20378;-62
2023/09/29 01:55:39;;;;;;;;;;;;;;;;;;5059933;28;19924;-62
2023/09/29 01:58:05;;;;;;;;;;;;;;;;;;5063590;28;19931;-62
2023/09/29 02:00:31;;;;;;;;;;;;;;;;;;5065080;28;19968;-62
2023/09/29 02:03:00;;;;;;;;;;;;;;;;;;5063666;28;20386;-62
2023/09/29 02:05:26;;;;;;;;;;;;;;;;;;5064963;28;19988;-62
2023/09/29 02:07:52;;;;;;;;;;;;;;;;;;5064887;28;19928;-63
2023/09/29 02:10:21;;;;;;;;;;;;;;;;;;5064474;28;20029;-63
2023/09/29 02:12:47;;;;;;;;;;;;;;;;;;5063727;28;20023;-63
2023/09/29 02:15:13;;;;;;;;;;;;;;;;;;5065702;28;20030;-63
2023/09/29 02:17:39;;;;;;;;;;;;;;;;;;5064090;28;19931;-63
2023/09/29 02:20:12;;;;;;;;;;;;;;;;;;5065049;28;20171;-63
2023/09/29 02:22:38;;;;;;;;;;;;;;;;;;5064425;28;19929;-63
2023/09/29 02:25:05;;;;;;;;;;;;;;;;;;5064088;28;19930;-63
2023/09/29 02:27:30;;;;;;;;;;;;;;;;;;5063723;28;19925;-60
2023/09/29 02:29:56;;;;;;;;;;;;;;;;;;5061931;28;20180;-62
2023/09/29 02:32:22;;;;;;;;;;;;;;;;;;5064622;28;19963;-61
2023/09/29 02:34:48;;;;;;;;;;;;;;;;;;5063722;28;20033;-61
2023/09/29 02:37:14;;;;;;;;;;;;;;;;;;5063329;28;19916;-62
2023/09/29 02:39:40;;;;;;;;;;;;;;;;;;5063023;28;19924;-62
2023/09/29 02:42:07;;;;;;;;;;;;;;;;;;5063627;28;20391;-62
2023/09/29 02:44:34;;;;;;;;;;;;;;;;;;5063828;28;19990;-63
2023/09/29 02:47:00;;;;;;;;;;;;;;;;;;5063957;28;19932;-62
2023/09/29 02:49:30;;;;;;;;;;;;;;;;;;5063615;28;19916;-62
2023/09/29 02:51:56;;;;;;;;;;;;;;;;;;5063931;28;19943;-62
2023/09/29 02:54:22;;;;;;;;;;;;;;;;;;5063530;28;20022;-62
2023/09/29 02:56:48;;;;;;;;;;;;;;;;;;5064005;28;19932;-62
2023/09/29 02:59:15;;;;;;;;;;;;;;;;;;5063468;28;20042;-62
2023/09/29 03:01:44;;;;;;;;;;;;;;;;;;5064226;28;20355;-62
2023/09/29 03:04:10;;;;;;;;;;;;;;;;;;5063145;28;20029;-62
2023/09/29 03:06:36;;;;;;;;;;;;;;;;;;5063545;28;19979;-62
2023/09/29 03:09:02;;;;;;;;;;;;;;;;;;5062213;28;20097;-61
2023/09/29 03:11:28;;;;;;;;;;;;;;;;;;5064130;28;19924;-61
2023/09/29 03:13:54;;;;;;;;;;;;;;;;;;5062466;28;20470;-62
2023/09/29 03:16:20;;;;;;;;;;;;;;;;;;5062924;28;19924;-62
2023/09/29 03:18:46;;;;;;;;;;;;;;;;;;5062714;28;20355;-61
2023/09/29 03:21:12;;;;;;;;;;;;;;;;;;5063728;28;19920;-62
2023/09/29 03:23:38;;;;;;;;;;;;;;;;;;5061152;28;20242;-62
2023/09/29 03:26:04;;;;;;;;;;;;;;;;;;5062857;28;20384;-62
2023/09/29 03:28:30;;;;;;;;;;;;;;;;;;5063515;28;19935;-62
2023/09/29 03:30:57;;;;;;;;;;;;;;;;;;5063578;28;20415;-62
2023/09/29 03:33:24;;;;;;;;;;;;;;;;;;5063261;28;20725;-62
2023/09/29 03:35:50;;;;;;;;;;;;;;;;;;5062655;28;19928;-62
2023/09/29 03:38:20;;;;;;;;;;;;;;;;;;5063632;28;19924;-62
2023/09/29 03:40:46;;;;;;;;;;;;;;;;;;5063198;28;20069;-62
2023/09/29 03:43:12;;;;;;;;;;;;;;;;;;5062567;28;20478;-62
2023/09/29 03:45:40;;;;;;;;;;;;;;;;;;5063629;28;19924;-62
2023/09/29 03:48:06;;;;;;;;;;;;;;;;;;5064994;28;19924;-62
2023/09/29 03:50:32;;;;;;;;;;;;;;;;;;5062619;28;20007;-62
2023/09/29 03:52:59;;;;;;;;;;;;;;;;;;5064103;28;19924;-62
2023/09/29 03:55:27;;;;;;;;;;;;;;;;;;5062637;28;20296;-62
2023/09/29 03:57:53;;;;;;;;;;;;;;;;;;5062328;28;19924;-62
2023/09/29 04:00:19;;;;;;;;;;;;;;;;;;5063780;28;20299;-62
2023/09/29 04:02:45;;;;;;;;;;;;;;;;;;5061157;28;20141;-62
2023/09/29 04:05:11;;;;;;;;;;;;;;;;;;5061012;28;19924;-62
2023/09/29 04:07:37;;;;;;;;;;;;;;;;;;5062654;28;19916;-62
2023/09/29 04:10:03;;;;;;;;;;;;;;;;;;5061010;28;19924;-62
2023/09/29 04:12:29;;;;;;;;;;;;;;;;;;5061447;28;19935;-62
2023/09/29 04:14:55;;;;;;;;;;;;;;;;;;5062398;28;19924;-62
2023/09/29 04:17:21;;;;;;;;;;;;;;;;;;5062507;28;19932;-62
2023/09/29 04:19:47;;;;;;;;;;;;;;;;;;5061511;28;20221;-62
2023/09/29 04:22:14;;;;;;;;;;;;;;;;;;5062537;28;19932;-62
2023/09/29 04:24:40;;;;;;;;;;;;;;;;;;5060937;28;19996;-62
2023/09/29 04:27:06;;;;;;;;;;;;;;;;;;5063070;28;19940;-62
2023/09/29 04:29:32;;;;;;;;;;;;;;;;;;5060118;28;19924;-63
2023/09/29 04:31:58;;;;;;;;;;;;;;;;;;5062031;28;20662;-62
2023/09/29 04:34:24;;;;;;;;;;;;;;;;;;5062673;28;20007;-61
2023/09/29 04:36:50;;;;;;;;;;;;;;;;;;5062306;28;19931;-62
2023/09/29 04:39:17;;;;;;;;;;;;;;;;;;5059526;28;19923;-62
2023/09/29 04:41:43;;;;;;;;;;;;;;;;;;5062603;28;20314;-63
2023/09/29 04:44:09;;;;;;;;;;;;;;;;;;5060957;28;19924;-63
2023/09/29 04:46:35;;;;;;;;;;;;;;;;;;5062384;28;20022;-63
2023/09/29 04:49:03;;;;;;;;;;;;;;;;;;5060457;28;19955;-63
2023/09/29 04:51:29;;;;;;;;;;;;;;;;;;5061984;28;20273;-62
2023/09/29 04:53:55;;;;;;;;;;;;;;;;;;5060720;28;19955;-62
2023/09/29 04:56:21;;;;;;;;;;;;;;;;;;5061893;28;19956;-62
2023/09/29 04:58:47;;;;;;;;;;;;;;;;;;5054466;28;19925;-62
2023/09/29 05:01:16;;;;;;;;;;;;;;;;;;5059689;28;20684;-62
2023/09/29 05:03:42;;;;;;;;;;;;;;;;;;5058269;28;20171;-62
2023/09/29 05:06:08;;;;;;;;;;;;;;;;;;5058970;28;19928;-62
2023/09/29 05:08:36;;;;;;;;;;;;;;;;;;5059587;28;20437;-62
2023/09/29 05:11:02;;;;;;;;;;;;;;;;;;5059289;28;19994;-62
2023/09/29 05:13:32;;;;;;;;;;;;;;;;;;5058846;28;19924;-62
2023/09/29 05:15:58;;;;;;;;;;;;;;;;;;5059467;28;20027;-62
2023/09/29 05:18:24;;;;;;;;;;;;;;;;;;5057655;28;19967;-62
2023/09/29 05:20:50;;;;;;;;;;;;;;;;;;5059136;28;19936;-63
2023/09/29 05:23:16;;;;;;;;;;;;;;;;;;5059212;28;19975;-63
2023/09/29 05:25:44;;;;;;;;;;;;;;;;;;5057733;28;19927;-63
2023/09/29 05:28:12;;;;;;;;;;;;;;;;;;5057940;28;19931;-63
2023/09/29 05:30:38;;;;;;;;;;;;;;;;;;5061209;28;19928;-63
2023/09/29 05:33:04;;;;;;;;;;;;;;;;;;5061099;28;20030;-63
2023/09/29 05:35:30;;;;;;;;;;;;;;;;;;5060697;28;20042;-63
2023/09/29 05:37:57;;;;;;;;;;;;;;;;;;5062590;28;20261;-62
2023/09/29 05:40:23;;;;;;;;;;;;;;;;;;5062445;28;20062;-62
2023/09/29 05:42:49;;;;;;;;;;;;;;;;;;5054785;28;19931;-62
2023/09/29 05:45:15;;;;;;;;;;;;;;;;;;5052446;28;20011;-62
2023/09/29 05:47:41;;;;;;;;;;;;;;;;;;5060223;28;19924;-62
2023/09/29 05:50:07;;;;;;;;;;;;;;;;;;5061247;28;20380;-62
2023/09/29 05:52:33;;;;;;;;;;;;;;;;;;5060948;28;20715;-62
2023/09/29 05:54:59;;;;;;;;;;;;;;;;;;5059378;28;19924;-61
2023/09/29 05:57:25;;;;;;;;;;;;;;;;;;5061184;28;19924;-62
2023/09/29 05:59:51;;;;;;;;;;;;;;;;;;5059495;28;20582;-62
2023/09/29 06:02:17;;;;;;;;;;;;;;;;;;5058237;28;19928;-62
2023/09/29 06:04:43;;;;;;;;;;;;;;;;;;5059799;28;20383;-62
2023/09/29 06:07:09;;;;;;;;;;;;;;;;;;5060199;28;19924;-62
2023/09/29 06:09:35;;;;;;;;;;;;;;;;;;5059742;28;19930;-62
2023/09/29 06:12:01;;;;;;;;;;;;;;;;;;5057819;28;20227;-63
2023/09/29 06:14:31;;;;;;;;;;;;;;;;;;5057242;28;21242;-62
2023/09/29 06:16:57;;;;;;;;;;;;;;;;;;5060461;28;19931;-62
2023/09/29 06:19:24;;;;;;;;;;;;;;;;;;5061356;28;19925;-63
2023/09/29 06:21:50;;;;;;;;;;;;;;;;;;5060374;28;19951;-63
2023/09/29 06:24:16;;;;;;;;;;;;;;;;;;5058809;28;19924;-63
2023/09/29 06:26:42;;;;;;;;;;;;;;;;;;5061106;28;19924;-62
2023/09/29 06:29:08;;;;;;;;;;;;;;;;;;5060152;28;20368;-63
2023/09/29 06:31:34;;;;;;;;;;;;;;;;;;5061697;28;20422;-63
2023/09/29 06:34:00;;;;;;;;;;;;;;;;;;5054347;28;20015;-62
2023/09/29 06:36:26;;;;;;;;;;;;;;;;;;5061234;28;19931;-63
2023/09/29 06:38:52;;;;;;;;;;;;;;;;;;5059359;28;20374;-63
2023/09/29 06:41:18;;;;;;;;;;;;;;;;;;5059655;28;20062;-63
2023/09/29 06:43:46;;;;;;;;;;;;;;;;;;5058562;28;20362;-63
2023/09/29 06:46:12;;;;;;;;;;;;;;;;;;5060616;28;20229;-63
2023/09/29 06:48:38;;;;;;;;;;;;;;;;;;5060647;28;19924;-63
2023/09/29 06:51:04;;;;;;;;;;;;;;;;;;5060857;28;20010;-62
2023/09/29 06:53:31;;;;;;;;;;;;;;;;;;5061373;28;19920;-62
2023/09/29 06:55:57;;;;;;;;;;;;;;;;;;5057696;28;19924;-63
2023/09/29 06:58:23;;;;;;;;;;;;;;;;;;5059520;28;19931;-62
2023/09/29 07:00:51;;;;;;;;;;;;;;;;;;5060443;28;19924;-62
2023/09/29 07:03:17;;;;;;;;;;;;;;;;;;5059051;28;20565;-63
2023/09/29 07:05:43;;;;;;;;;;;;;;;;;;5059185;28;19932;-63
2023/09/29 07:08:10;;;;;;;;;;;;;;;;;;5058219;28;20581;-63
2023/09/29 07:10:36;;;;;;;;;;;;;;;;;;5058456;28;20319;-63
2023/09/29 07:13:02;;;;;;;;;;;;;;;;;;5055935;28;19925;-63
2023/09/29 07:15:28;;;;;;;;;;;;;;;;;;5058351;28;20379;-63
2023/09/29 07:17:54;;;;;;;;;;;;;;;;;;5057860;28;19924;-62
2023/09/29 07:20:20;;;;;;;;;;;;;;;;;;5059527;28;20423;-62
2023/09/29 07:22:46;;;;;;;;;;;;;;;;;;5059173;28;20103;-63
2023/09/29 07:25:14;;;;;;;;;;;;;;;;;;5057657;28;20063;-62
2023/09/29 07:27:40;;;;;;;;;;;;;;;;;;5058119;28;19924;-63
2023/09/29 07:30:06;;;;;;;;;;;;;;;;;;5058339;28;19932;-63
2023/09/29 07:32:32;;;;;;;;;;;;;;;;;;5058128;28;20306;-63
2023/09/29 07:34:58;;;;;;;;;;;;;;;;;;5057480;28;19988;-63
2023/09/29 07:37:24;;;;;;;;;;;;;;;;;;5057917;28;20276;-63
2023/09/29 07:39:50;;;;;;;;;;;;;;;;;;5057525;28;19931;-62
2023/09/29 07:42:17;;;;;;;;;;;;;;;;;;5054633;28;19928;-62
2023/09/29 07:44:43;;;;;;;;;;;;;;;;;;5058684;28;19924;-63
2023/09/29 07:47:09;;;;;;;;;;;;;;;;;;5058275;28;19946;-62
2023/09/29 07:49:40;;;;;;;;;;;;;;;;;;5057786;28;19931;-63
2023/09/29 07:52:06;;;;;;;;;;;;;;;;;;5057844;28;19924;-63
2023/09/29 07:54:34;;;;;;;;;;;;;;;;;;5054516;28;19924;-63
2023/09/29 07:57:00;;;;;;;;;;;;;;;;;;5055991;28;19928;-63
2023/09/29 07:59:26;;;;;;;;;;;;;;;;;;5058058;28;19928;-62
2023/09/29 08:01:52;;;;;;;;;;;;;;;;;;5058163;28;19935;-63
2023/09/29 08:04:18;;;;;;;;;;;;;;;;;;5057559;28;19977;-63
2023/09/29 08:06:44;;;;;;;;;;;;;;;;;;5058879;28;20726;-63
2023/09/29 08:09:12;;;;;;;;;;;;;;;;;;5057380;28;19924;-63
2023/09/29 08:11:38;;;;;;;;;;;;;;;;;;5053232;28;20019;-63
2023/09/29 08:14:04;;;;;;;;;;;;;;;;;;5058218;28;20356;-63
2023/09/29 08:16:30;;;;;;;;;;;;;;;;;;5059511;28;19928;-63
2023/09/29 08:18:56;;;;;;;;;;;;;;;;;;5058207;28;19923;-63
2023/09/29 08:21:22;;;;;;;;;;;;;;;;;;5058429;28;19986;-63
2023/09/29 08:23:49;;;;;;;;;;;;;;;;;;5058034;28;20292;-63
2023/09/29 08:26:15;;;;;;;;;;;;;;;;;;5057664;28;19925;-63
2023/09/29 08:28:41;;;;;;;;;;;;;;;;;;5058129;28;19947;-63
2023/09/29 08:31:07;;;;;;;;;;;;;;;;;;5057261;28;19932;-63
2023/09/29 08:33:33;;;;;;;;;;;;;;;;;;5058548;28;19924;-63
2023/09/29 08:35:59;;;;;;;;;;;;;;;;;;5057394;28;19932;-63
2023/09/29 08:38:25;;;;;;;;;;;;;;;;;;5058752;28;19924;-63
2023/09/29 08:40:51;;;;;;;;;;;;;;;;;;5055625;28;20452;-63
2023/09/29 08:43:17;;;;;;;;;;;;;;;;;;5055368;28;20051;-63
2023/09/29 08:45:43;;;;;;;;;;;;;;;;;;5058694;28;19920;-63
2023/09/29 08:48:11;;;;;;;;;;;;;;;;;;5057417;28;20015;-64
2023/09/29 08:50:37;;;;;;;;;;;;;;;;;;5056512;28;19930;-63
2023/09/29 08:53:04;;;;;;;;;;;;;;;;;;5057325;28;19924;-63
2023/09/29 08:55:30;;;;;;;;;;;;;;;;;;5057748;28;19963;-63
2023/09/29 08:57:55;;;;;;;;;;;19.20;97.60;;;;;;5056563;28;19994;-63
2023/09/29 09:00:23;;;;;;;;;;;18.90;99.90;;;;;;5057812;28;20435;-63
2023/09/29 09:02:48;;;;;;;;;;;18.90;99.90;;;;;;5057609;28;20480;-63
2023/09/29 09:05:17;;;;;;;;;;;19.00;99.90;;;;;;5056112;28;19936;-63
2023/09/29 09:07:46;;;;;;;;;;;19.10;99.90;;;;;;5057520;28;19924;-63
2023/09/29 09:10:12;;;;;;;;;;;19.00;99.90;;;;;;5057793;28;20865;-62
2023/09/29 09:12:40;;;;;;;;;;;19.10;99.90;;;;;;5056436;28;20885;-63
2023/09/29 09:15:07;;;;;;;;;;;19.10;99.90;;;;;;5057830;28;19924;-63
2023/09/29 09:17:34;;;;;;;;;;;19.20;99.90;;;;;;5057121;28;19959;-62
2023/09/29 09:20:00;;;;;;;;;;;19.20;99.90;;;;;;5056854;28;20229;-62
2023/09/29 09:22:27;;;;;;;;;;;19.20;99.90;;;;;;5056763;28;19936;-63
2023/09/29 09:24:53;;;;;;;;;;;;;;;;;;5056533;28;20375;-63
2023/09/29 09:27:19;;;;;;;;;;;;;;;;;;5058035;28;20010;-63
2023/09/29 09:29:45;;;;;;;;;;;;;;;;;;5057759;28;20015;-62
2023/09/29 09:32:11;;;;;;;;;;;;;;;;;;5053486;28;19935;-62
2023/09/29 09:34:37;;;;;;;;;;;;;;;;;;5054451;28;19930;-62
2023/09/29 09:37:05;;;;;;;;;;;;;;;;;;5055061;28;20088;-62
2023/09/29 09:39:33;;;;;;;;;;;;;;;;;;5054425;28;19916;-62
2023/09/29 09:41:59;;;;;;;;;;;;;;;;;;5049383;28;20085;-63
2023/09/29 09:44:26;;;;;;;;;;;;;;;;;;5060378;28;19932;-63
2023/09/29 09:47:03;;;;;;;;;;;;;;;;;;5061965;28;20383;-63
2023/09/29 09:49:30;;;;;;;;;;;;;;;;;;5061621;28;20681;-63
2023/09/29 09:51:56;;;;;;;;;;;;;;;;;;5060014;28;20184;-62
2023/09/29 09:54:22;;;;;;;;;;;;;;;;;;5060595;28;20051;-62
2023/09/29 09:56:48;;;;;;;;;;;;;;;;;;5060513;28;20410;-62
2023/09/29 09:59:14;;;;;;;;;;;;;;;;;;5059448;28;19931;-63
2023/09/29 10:01:40;;;;;;;;;;;;;;;;;;5061120;28;19935;-62
2023/09/29 10:04:06;;;;;;;;;;;;;;;;;;5058601;28;19924;-62
2023/09/29 10:06:33;;;;;;;;;;;;;;;;;;5058695;28;19974;-62
2023/09/29 10:09:07;;;;;;;;;;;;;;;;;;5059797;28;20010;-63
2023/09/29 10:11:34;;;;;;;;;;;;;;;;;;5059117;28;19997;-63
2023/09/29 10:14:00;;;;;;;;;;;;;;;;;;5059334;28;19920;-62
2023/09/29 10:16:26;;;;;;;;;;;;;;;;;;5060644;28;19931;-63
2023/09/29 10:18:53;;;;;;;;;;;;;;;;;;5062869;28;20466;-63
2023/09/29 10:21:19;;;;;;;;;;;;;;;;;;5063615;28;19920;-63
2023/09/29 10:23:45;;;;;;;;;;;;;;;;;;5062948;28;19974;-63
2023/09/29 10:26:13;;;;;;;;;;;;;;;;;;5063533;28;19931;-62
2023/09/29 10:28:39;;;;;;;;;;;;;;;;;;5062483;28;19924;-63
2023/09/29 10:31:05;;;;;;;;;;;;;;;;;;5063977;28;19940;-63
2023/09/29 10:33:31;;;;;;;;;;;;;;;;;;5063759;28;20870;-63
2023/09/29 10:35:57;;;;;;;;;;;;;;;;;;5063532;28;19920;-62
2023/09/29 10:38:23;;;;;;;;;;;;;;;;;;5063834;28;20019;-62
2023/09/29 10:40:49;;;;;;;;;;;;;;;;;;5062825;28;20074;-63
2023/09/29 10:43:15;;;;;;;;;;;;;;;;;;5061401;28;20800;-65
2023/09/29 10:45:41;;;;;;;;;;;;;;;;;;5063792;28;19920;-63
2023/09/29 10:48:07;;;;;;;;;;;;;;;;;;5064098;28;19916;-63
2023/09/29 10:50:33;;;;;;;;;;;;;;;;;;5063296;28;20018;-63
2023/09/29 10:52:59;;;;;;;;;;;;;;;;;;5063022;28;19924;-63
2023/09/29 10:55:26;;;;;;;;;;;;;;;;;;5063060;28;21551;-63
2023/09/29 10:57:52;;;;;;;;;;;;;;;;;;5062436;28;20289;-62
2023/09/29 11:00:19;;;;;;;;;;;;;;;;;;5063736;28;20054;-63
2023/09/29 11:02:48;;;;;;;;;;;;;;;;;;5063568;28;19924;-63
2023/09/29 11:05:14;;;;;;;;;;;;;;;;;;5070165;28;19967;-63
2023/09/29 11:07:40;;;;;;;;;;;;;;;;;;5063979;28;19992;-63
2023/09/29 11:10:06;;;;;;;;;;;;;;;;;;5063466;28;20291;-63
2023/09/29 11:12:34;;;;;;;;;;;;;;;;;;5062326;28;19924;-63
2023/09/29 11:15:00;;;;;;;;;;;;;;;;;;5063090;28;19924;-63
2023/09/29 11:17:26;;;;;;;;;;;;;;;;;;5063389;28;20077;-63
2023/09/29 11:19:54;;;;;;;;;;;;;;;;;;5062011;28;20006;-63
2023/09/29 11:22:20;;;;;;;;;;;;;;;;;;5062941;28;19928;-63
2023/09/29 11:24:48;;;;;;;;;;;;;;;;;;5062212;28;19931;-63
2023/09/29 11:27:15;;;;;;;;;;;;;;;;;;5061610;28;19936;-63
2023/09/29 11:29:43;;;;;;;;;;;;;;;;;;5059927;28;19924;-63
2023/09/29 11:32:09;;;;;;;;;;;;;;;;;;5062911;28;19925;-63
2023/09/29 11:34:35;;;;;;;;;;;;;;;;;;5060288;28;20109;-63
2023/09/29 11:37:01;;;;;;;;;;;;;;;;;;5062083;28;20019;-63
2023/09/29 11:39:27;;;;;;;;;;;;;;;;;;5061627;28;19920;-63
2023/09/29 11:41:53;;;;;;;;;;;;;;;;;;5059892;28;20027;-63
2023/09/29 11:44:19;;;;;;;;;;;;;;;;;;5061007;28;19924;-63
2023/09/29 11:46:45;;;;;;;;;;;;;;;;;;5062403;28;20015;-63
2023/09/29 11:49:11;;;;;;;;;;;;;;;;;;5061848;28;20284;-65
2023/09/29 11:51:38;;;;;;;;;;;;;;;;;;5062393;28;19947;-63
2023/09/29 11:54:04;;;;;;;;;;;;;;;;;;5061926;28;19924;-63
2023/09/29 11:56:30;;;;;;;;;;;;;;;;;;5061551;28;19977;-63
2023/09/29 11:58:56;;;;;;;;;;;;;;;;;;5059366;28;19933;-63
2023/09/29 12:01:22;;;;;;;;;;;;;;;;;;5060908;28;20287;-63
2023/09/29 12:03:49;;;;;;;;;;;;;;;;;;5059884;28;19935;-64
2023/09/29 12:06:15;;;;;;;;;;;;;;;;;;5060344;28;19940;-63
2023/09/29 12:08:41;;;;;;;;;;;;;;;;;;5059631;28;19928;-63
2023/09/29 12:11:07;;;;;;;;;;;;;;;;;;5056900;28;20344;-63
2023/09/29 12:13:35;;;;;;;;;;;;;;;;;;5058999;28;20462;-62
2023/09/29 12:16:01;;;;;;;;;;;;;;;;;;5061399;28;19924;-63
2023/09/29 12:18:27;;;;;;;;;;;;;;;;;;5061191;28;19924;-63
2023/09/29 12:20:55;;;;;;;;;;;;;;;;;;5060227;28;19924;-63
2023/09/29 12:23:21;;;;;;;;;;;;;;;;;;5061977;28;19929;-63
2023/09/29 12:25:47;;;;;;;;;;;;;;;;;;5060935;28;19931;-63
2023/09/29 12:28:13;;;;;;;;;;;;;;;;;;5061013;28;20273;-63
2023/09/29 12:30:39;;;;;;;;;;;;;;;;;;5060891;28;19936;-63
2023/09/29 12:33:05;;;;;;;;;;;;;;;;;;5062002;28;19924;-63
2023/09/29 12:35:32;;;;;;;;;;;;;;;;;;5060807;28;20073;-63
2023/09/29 12:37:58;;;;;;;;;;;;;;;;;;5061780;28;20054;-63
2023/09/29 12:40:24;;;;;;;;;;;;;;;;;;5060117;28;20387;-63
2023/09/29 12:42:50;;;;;;;;;;;;;;;;;;5061129;28;20114;-63
2023/09/29 12:45:17;;;;;;;;;;;;;;;;;;5061673;28;19924;-63
2023/09/29 12:47:43;;;;;;;;;;;;;;;;;;5061888;28;20340;-63
2023/09/29 12:50:10;;;;;;;;;;;;;;;;;;5060874;28;19924;-63
2023/09/29 12:52:37;;;;;;;;;;;;;;;;;;5062217;28;19977;-63
2023/09/29 12:55:03;;;;;;;;;;;;;;;;;;5061694;28;19924;-63
2023/09/29 12:57:29;;;;;;;;;;;;;;;;;;5061603;28;19924;-63
2023/09/29 12:59:56;;;;;;;;;;;;;;;;;;5060642;28;19931;-63
2023/09/29 13:02:24;;;;;;;;;;;;;;;;;;5062054;28;20298;-63
2023/09/29 13:04:50;;;;;;;;;;;;;;;;;;5060247;28;20027;-62
2023/09/29 13:07:16;;;;;;;;;;;;;;;;;;5061842;28;20043;-63
2023/09/29 13:09:42;;;;;;;;;;;;;;;;;;5061196;28;19959;-63
2023/09/29 13:12:08;;;;;;;;;;;;;;;;;;5060916;28;19924;-63
2023/09/29 13:14:34;;;;;;;;;;;;;;;;;;5060883;28;19928;-63
2023/09/29 13:17:00;;;;;;;;;;;;;;;;;;5061759;28;19977;-63
2023/09/29 13:19:26;;;;;;;;;;;;;;;;;;5061082;28;20290;-63
2023/09/29 13:21:52;;;;;;;;;;;;;;;;;;5060764;28;20355;-63
2023/09/29 13:24:18;;;;;;;;;;;;;;;;;;5060449;28;20316;-63
2023/09/29 13:26:44;;;;;;;;;;;;;;;;;;5060864;28;19924;-63
2023/09/29 13:29:10;;;;;;;;;;;;;;;;;;5058138;28;20355;-64
2023/09/29 13:31:36;;;;;;;;;;;;;;;;;;5060827;28;19932;-64
2023/09/29 13:34:03;;;;;;;;;;;;;;;;;;5059961;28;19931;-64
2023/09/29 13:36:31;;;;;;;;;;;;;;;;;;5060690;28;20441;-64
2023/09/29 13:38:57;;;;;;;;;;;;;;;;;;5060253;28;20117;-64
2023/09/29 13:41:23;;;;;;;;;;;;;;;;;;5060678;28;19986;-64
2023/09/29 13:43:50;;;;;;;;;;;;;;;;;;5058506;28;20011;-64
2023/09/29 13:46:16;;;;;;;;;;;;;;;;;;5060996;28;19925;-62
2023/09/29 13:48:42;;;;;;;;;;;;;;;;;;5061099;28;19928;-63
2023/09/29 13:51:08;;;;;;;;;;;;;;;;;;5062395;28;20407;-62
2023/09/29 13:53:34;;;;;;;;;;;;;;;;;;5064779;28;20022;-62
2023/09/29 13:56:00;;;;;;;;;;;;;;;;;;5064463;28;20370;-63
2023/09/29 13:58:26;;;;;;;;;;;;;;;;;;5063719;28;19916;-62
2023/09/29 14:00:52;;;;;;;;;;;;;;;;;;5065461;28;20150;-63
2023/09/29 14:03:18;;;;;;;;;;;;;;;;;;5063043;28;19987;-63
2023/09/29 14:05:44;;;;;;;;;;;;;;;;;;5064744;28;19939;-63
2023/09/29 14:08:10;;;;;;;;;;;;;;;;;;5064563;28;19924;-63
2023/09/29 14:10:36;;;;;;;;;;;;;;;;;;5064644;28;19931;-63
2023/09/29 14:13:02;;;;;;;;;;;;;;;;;;5061919;28;20387;-64
2023/09/29 14:15:29;;;;;;;;;;;19.20;99.90;;;;;;5065059;28;20001;-63
2023/09/29 14:17:55;;;;;;;;;;;;;;;;;;5064205;28;19959;-64
2023/09/29 14:20:21;;;;;;;;;;;;;;;;;;5063009;28;20006;-64
2023/09/29 14:22:48;;;;;;;;;;;;;;;;;;5063332;28;19929;-64
2023/09/29 14:25:14;;;;;;;;;;;;;;;;;;5062576;28;19924;-63
2023/09/29 14:27:40;;;;;;;;;;;;;;;;;;5062358;28;20034;-64
2023/09/29 14:30:08;;;;;;;;;;;;;;;;;;5064566;28;19954;-64
2023/09/29 14:32:34;;;;;;;;;;;;;;;;;;5064041;28;19970;-64
2023/09/29 14:35:00;;;;;;;;;;;;;;;;;;5063736;28;19932;-64
2023/09/29 14:37:26;;;;;;;;;;;;;;;;;;5064341;28;20005;-64
2023/09/29 14:39:57;;;;;;;;;;;;;;;;;;5063632;28;20395;-63
2023/09/29 14:42:23;;;;;;;;;;;;;;;;;;5063601;28;20368;-64
2023/09/29 14:44:49;;;;;;;;;;;;;;;;;;5063567;28;19938;-64
2023/09/29 14:47:15;;;;;;;;;;;;;;;;;;5063224;28;20391;-64
2023/09/29 14:49:42;;;;;;;;;;;;;;;;;;5063500;28;19956;-64
2023/09/29 14:52:08;;;;;;;;;;;;;;;;;;5063200;28;20363;-64
2023/09/29 14:54:34;;;;;;;;;;;;;;;;;;5063608;28;19930;-63
2023/09/29 14:57:00;;;;;;;;;;;;;;;;;;5061980;28;19920;-64
2023/09/29 14:59:26;;;;;;;;;;;;;;;;;;5062407;28;20352;-64
2023/09/29 15:01:53;;;;;;;;;;;;;;;;;;5063720;28;20372;-64
2023/09/29 15:04:19;;;;;;;;;;;;;;;;;;5056574;28;19936;-63
2023/09/29 15:06:45;;;;;;;;;;;;;;;;;;5057683;28;19924;-64
2023/09/29 15:09:11;;;;;;;;;;;;;;;;;;5058600;28;19924;-64
2023/09/29 15:11:37;;;;;;;;;;;;;;;;;;5060560;28;20348;-63
2023/09/29 15:14:03;;;;;;;;;;;;;;;;;;5059401;28;19936;-64
2023/09/29 15:16:29;;;;;;;;;;;;;;;;;;5060905;28;19931;-64
2023/09/29 15:18:55;;;;;;;;;;;;;;;;;;5059180;28;19924;-63
2023/09/29 15:21:21;;;;;;;;;;;;;;;;;;5061035;28;19924;-64
2023/09/29 15:23:53;;;;;;;;;;;;;;;;;;5059821;28;19935;-64
2023/09/29 15:26:19;;;;;;;;;;;;;;;;;;5061869;28;20003;-64
2023/09/29 15:28:45;;;;;;;;;;;;;;;;;;5061046;28;20276;-64
2023/09/29 15:31:11;;;;;;;;;;;;;;;;;;5060104;28;20016;-64
2023/09/29 15:33:37;;;;;;;;;;;;;;;;;;5059774;28;19931;-65
2023/09/29 15:36:03;;;;;;;;;;;;;;;;;;5060223;28;19924;-64
2023/09/29 15:38:29;;;;;;;;;;;;;;;;;;5060001;28;20296;-64
2023/09/29 15:40:55;;;;;;;;;;;;;;;;;;5060440;28;19924;-64
2023/09/29 15:43:21;;;;;;;;;;;;;;;;;;5056930;28;19959;-63
2023/09/29 15:45:48;;;;;;;;;;;;;;;;;;5060358;28;19924;-63
2023/09/29 15:48:14;;;;;;;;;;;;;;;;;;5061020;28;19921;-63
2023/09/29 15:50:40;;;;;;;;;;;;;;;;;;5059736;28;20224;-63
2023/09/29 15:53:06;;;;;;;;;;;;;;;;;;5060290;28;19924;-63
2023/09/29 15:55:32;;;;;;;;;;;;;;;;;;5059954;28;19924;-64
2023/09/29 15:57:58;;;;;;;;;;;;;;;;;;5059352;28;19947;-63
2023/09/29 16:00:24;;;;;;;;;;;;;;;;;;5059767;28;20376;-63
2023/09/29 16:02:50;;;;;;;;;;;;;;;;;;5060323;28;19983;-63
2023/09/29 16:05:16;;;;;;;;;;;;;;;;;;5059178;28;19924;-63
2023/09/29 16:07:42;;;;;;;;;;;;;;;;;;5060698;28;19931;-63
2023/09/29 16:10:09;;;;;;;;;;;;;;;;;;5059525;28;20627;-63
2023/09/29 16:12:35;;;;;;;;;;;;;;;;;;5060317;28;20847;-64
2023/09/29 16:15:01;;;;;;;;;;;;;;;;;;5055580;28;20032;-64
2023/09/29 16:17:27;;;;;;;;;;;;;;;;;;5058669;28;20452;-64
2023/09/29 16:19:55;;;;;;;;;;;;;;;;;;5058123;28;19924;-64
2023/09/29 16:22:21;;;;;;;;;;;;;;;;;;5058931;28;19935;-64
2023/09/29 16:24:47;;;;;;;;;;;;;;;;;;5059090;28;20523;-64
2023/09/29 16:27:13;;;;;;;;;;;;;;;;;;5060119;28;19924;-64
2023/09/29 16:29:39;;;;;;;;;;;;;;;;;;5059611;28;19947;-64
2023/09/29 16:32:06;;;;;;;;;;;;;;;;;;5059930;28;20375;-64
2023/09/29 16:34:31;;;;;;;;;;;;;;;;;;5061392;28;19932;-63